createdAt,value
2019-03-31T00:00:43.842Z,0.00
2019-03-31T00:01:43.822Z,0.00
2019-03-31T00:02:43.803Z,0.00
2019-03-31T00:03:43.780Z,0.00
2019-03-31T00:04:43.782Z,0.00
2019-03-31T00:05:43.739Z,0.00
2019-03-31T00:06:43.717Z,0.00
2019-03-31T00:07:43.698Z,0.00
2019-03-31T00:08:43.688Z,0.00
2019-03-31T00:09:43.658Z,0.00
2019-03-31T00:10:43.636Z,0.00
2019-03-31T00:11:43.616Z,0.00
2019-03-31T00:12:43.593Z,0.00
2019-03-31T00:13:43.574Z,0.00
2019-03-31T00:14:43.554Z,0.00
2019-03-31T00:15:43.533Z,0.00
2019-03-31T00:16:43.510Z,0.00
2019-03-31T00:17:43.493Z,0.00
2019-03-31T00:18:43.480Z,0.00
2019-03-31T00:19:43.451Z,0.00
2019-03-31T00:20:43.429Z,0.00
2019-03-31T00:21:43.411Z,0.00
2019-03-31T00:22:43.397Z,0.00
2019-03-31T00:23:43.366Z,0.00
2019-03-31T00:24:43.344Z,0.00
2019-03-31T00:25:43.323Z,0.00
2019-03-31T00:26:43.301Z,0.00
2019-03-31T00:27:43.280Z,0.00
2019-03-31T00:28:43.260Z,0.00
2019-03-31T00:29:43.240Z,0.00
2019-03-31T00:30:43.232Z,0.00
2019-03-31T00:31:43.196Z,0.00
2019-03-31T00:32:43.175Z,0.00
2019-03-31T00:33:43.168Z,0.00
2019-03-31T00:34:43.135Z,0.00
2019-03-31T00:35:43.115Z,0.00
2019-03-31T00:36:43.101Z,0.00
2019-03-31T00:37:43.073Z,0.00
2019-03-31T00:38:43.061Z,0.00
2019-03-31T00:39:43.036Z,0.00
2019-03-31T00:40:43.011Z,0.00
2019-03-31T00:41:42.990Z,0.00
2019-03-31T00:42:43.062Z,0.00
2019-03-31T00:43:42.948Z,0.00
2019-03-31T00:44:42.959Z,0.00
2019-03-31T00:45:42.906Z,0.00
2019-03-31T00:46:42.884Z,0.00
2019-03-31T00:47:42.871Z,0.00
2019-03-31T00:48:42.845Z,0.00
2019-03-31T00:49:42.825Z,0.00
2019-03-31T00:50:42.806Z,0.00
2019-03-31T00:51:42.794Z,0.00
2019-03-31T00:52:42.770Z,0.00
2019-03-31T00:53:42.744Z,0.00
2019-03-31T00:54:42.720Z,0.00
2019-03-31T00:55:42.696Z,0.00
2019-03-31T00:56:42.673Z,0.00
2019-03-31T00:57:42.655Z,0.00
2019-03-31T00:58:42.633Z,0.00
2019-03-31T00:59:42.613Z,0.00
2019-03-31T01:00:42.596Z,0.00
2019-03-31T01:01:42.572Z,0.00
2019-03-31T01:02:42.550Z,0.00
2019-03-31T01:03:42.542Z,0.00
2019-03-31T01:04:42.509Z,0.00
2019-03-31T01:05:42.491Z,0.00
2019-03-31T01:06:42.468Z,0.00
2019-03-31T01:07:42.448Z,0.00
2019-03-31T01:08:42.430Z,0.00
2019-03-31T01:09:42.408Z,0.00
2019-03-31T01:10:42.385Z,0.00
2019-03-31T01:11:42.365Z,0.00
2019-03-31T01:12:42.343Z,0.00
2019-03-31T01:13:42.326Z,0.00
2019-03-31T01:14:42.303Z,0.00
2019-03-31T01:15:42.285Z,0.00
2019-03-31T01:16:42.260Z,0.00
2019-03-31T01:17:42.240Z,0.00
2019-03-31T01:18:42.224Z,0.00
2019-03-31T01:19:42.199Z,0.00
2019-03-31T01:20:42.181Z,0.00
2019-03-31T01:21:42.164Z,0.00
2019-03-31T01:22:42.135Z,0.00
2019-03-31T01:23:42.158Z,0.00
2019-03-31T01:24:42.094Z,0.00
2019-03-31T01:25:42.141Z,0.00
2019-03-31T01:26:42.059Z,0.00
2019-03-31T01:27:42.039Z,0.00
2019-03-31T01:28:42.012Z,0.00
2019-03-31T01:29:41.992Z,0.00
2019-03-31T01:30:41.969Z,0.00
2019-03-31T01:31:50.247Z,0.00
2019-03-31T01:32:41.928Z,0.00
2019-03-31T01:33:41.908Z,0.00
2019-03-31T01:34:41.892Z,0.00
2019-03-31T01:35:41.866Z,0.00
2019-03-31T01:36:41.847Z,0.00
2019-03-31T01:37:41.825Z,0.00
2019-03-31T01:38:41.804Z,0.00
2019-03-31T01:39:41.786Z,0.00
2019-03-31T01:40:41.764Z,0.00
2019-03-31T01:41:41.743Z,0.00
2019-03-31T01:42:41.726Z,0.00
2019-03-31T01:43:41.699Z,0.00
2019-03-31T01:44:41.686Z,0.00
2019-03-31T01:45:41.660Z,0.00
2019-03-31T01:46:41.638Z,0.00
2019-03-31T01:47:41.623Z,0.00
2019-03-31T01:48:41.596Z,0.00
2019-03-31T01:49:41.581Z,0.00
2019-03-31T01:50:41.553Z,0.00
2019-03-31T01:51:41.533Z,0.00
2019-03-31T01:52:41.511Z,0.00
2019-03-31T01:53:41.536Z,0.00
2019-03-31T01:54:41.476Z,0.00
2019-03-31T01:55:41.454Z,0.00
2019-03-31T01:56:44.613Z,0.00
2019-03-31T01:57:41.422Z,0.00
2019-03-31T01:58:41.386Z,0.00
2019-03-31T01:59:41.369Z,0.00
2019-03-31T02:00:41.345Z,0.00
2019-03-31T02:01:41.327Z,0.00
2019-03-31T02:02:41.304Z,0.00
2019-03-31T02:03:41.284Z,0.00
2019-03-31T02:04:41.266Z,0.00
2019-03-31T02:05:41.245Z,0.00
2019-03-31T02:06:41.220Z,0.00
2019-03-31T02:07:41.214Z,0.00
2019-03-31T02:08:41.184Z,0.00
2019-03-31T02:09:41.160Z,0.00
2019-03-31T02:10:41.138Z,0.00
2019-03-31T02:11:41.117Z,0.00
2019-03-31T02:12:41.096Z,0.00
2019-03-31T02:13:41.084Z,0.00
2019-03-31T02:14:41.055Z,0.00
2019-03-31T02:15:41.036Z,0.00
2019-03-31T02:16:41.013Z,0.00
2019-03-31T02:17:40.994Z,0.00
2019-03-31T02:18:40.971Z,0.00
2019-03-31T02:19:40.951Z,0.00
2019-03-31T02:20:40.930Z,0.00
2019-03-31T02:21:40.916Z,0.00
2019-03-31T02:22:40.885Z,0.00
2019-03-31T02:23:40.868Z,0.00
2019-03-31T02:24:40.843Z,0.00
2019-03-31T02:25:40.826Z,0.00
2019-03-31T02:26:40.806Z,0.00
2019-03-31T02:27:40.783Z,0.00
2019-03-31T02:28:40.757Z,0.00
2019-03-31T02:29:40.737Z,0.00
2019-03-31T02:30:40.731Z,0.00
2019-03-31T02:31:40.708Z,0.00
2019-03-31T02:32:40.681Z,0.00
2019-03-31T02:33:40.657Z,0.00
2019-03-31T02:34:40.638Z,0.00
2019-03-31T02:35:40.619Z,0.00
2019-03-31T02:36:40.599Z,0.00
2019-03-31T02:37:40.596Z,0.00
2019-03-31T02:38:40.552Z,0.00
2019-03-31T02:39:40.529Z,0.00
2019-03-31T02:40:40.513Z,0.00
2019-03-31T02:41:40.485Z,0.00
2019-03-31T02:42:40.465Z,0.00
2019-03-31T02:43:40.442Z,0.00
2019-03-31T02:44:40.420Z,0.00
2019-03-31T02:45:40.409Z,0.00
2019-03-31T02:46:40.378Z,0.00
2019-03-31T02:47:40.385Z,0.00
2019-03-31T02:48:40.348Z,0.00
2019-03-31T02:49:40.314Z,0.00
2019-03-31T02:50:40.296Z,0.00
2019-03-31T02:51:40.274Z,0.00
2019-03-31T02:52:40.253Z,0.00
2019-03-31T02:53:40.233Z,0.00
2019-03-31T02:54:40.209Z,0.00
2019-03-31T02:55:40.192Z,0.00
2019-03-31T02:56:40.170Z,0.00
2019-03-31T02:57:40.147Z,0.00
2019-03-31T02:58:40.126Z,0.00
2019-03-31T02:59:40.110Z,0.00
2019-03-31T03:00:40.091Z,0.00
2019-03-31T03:01:40.062Z,0.00
2019-03-31T03:02:42.658Z,0.00
2019-03-31T03:03:40.021Z,0.00
2019-03-31T03:04:40.016Z,0.00
2019-03-31T03:05:39.981Z,0.00
2019-03-31T03:06:39.953Z,0.00
2019-03-31T03:07:39.934Z,0.00
2019-03-31T03:08:39.912Z,0.00
2019-03-31T03:09:39.894Z,0.00
2019-03-31T03:10:39.872Z,0.00
2019-03-31T03:11:39.846Z,0.00
2019-03-31T03:12:39.833Z,0.00
2019-03-31T03:13:39.804Z,0.00
2019-03-31T03:14:39.783Z,0.00
2019-03-31T03:15:39.762Z,0.00
2019-03-31T03:16:39.741Z,0.00
2019-03-31T03:17:39.718Z,0.00
2019-03-31T03:18:39.697Z,0.00
2019-03-31T03:19:39.675Z,0.00
2019-03-31T03:20:39.655Z,0.00
2019-03-31T03:21:39.634Z,0.00
2019-03-31T03:22:39.622Z,0.00
2019-03-31T03:23:39.590Z,0.00
2019-03-31T03:24:39.570Z,0.00
2019-03-31T03:25:55.216Z,0.00
2019-03-31T03:26:39.526Z,0.00
2019-03-31T03:27:39.510Z,0.00
2019-03-31T03:28:39.483Z,0.00
2019-03-31T03:29:39.460Z,0.00
2019-03-31T03:30:39.621Z,0.00
2019-03-31T03:31:39.417Z,0.00
2019-03-31T03:32:39.397Z,0.00
2019-03-31T03:33:39.381Z,0.00
2019-03-31T03:34:39.364Z,0.00
2019-03-31T03:35:39.328Z,0.00
2019-03-31T03:36:42.958Z,0.00
2019-03-31T03:37:39.287Z,0.00
2019-03-31T03:38:39.263Z,0.00
2019-03-31T03:39:39.242Z,0.00
2019-03-31T03:40:39.251Z,0.00
2019-03-31T03:41:39.198Z,0.00
2019-03-31T03:42:39.176Z,0.00
2019-03-31T03:43:54.135Z,0.00
2019-03-31T03:44:39.152Z,0.00
2019-03-31T03:45:39.127Z,0.00
2019-03-31T03:46:39.110Z,0.00
2019-03-31T03:47:39.067Z,0.00
2019-03-31T03:48:39.047Z,0.00
2019-03-31T03:49:39.026Z,0.00
2019-03-31T03:50:39.008Z,0.00
2019-03-31T03:51:38.979Z,0.00
2019-03-31T03:52:38.959Z,0.00
2019-03-31T03:53:38.937Z,0.00
2019-03-31T03:54:38.914Z,0.00
2019-03-31T03:55:38.897Z,0.00
2019-03-31T03:56:38.877Z,0.00
2019-03-31T03:57:38.854Z,0.00
2019-03-31T03:58:38.826Z,0.00
2019-03-31T03:59:38.804Z,0.00
2019-03-31T04:00:38.782Z,0.00
2019-03-31T04:01:38.759Z,0.00
2019-03-31T04:02:38.746Z,0.00
2019-03-31T04:03:38.715Z,0.00
2019-03-31T04:04:38.695Z,0.00
2019-03-31T04:05:38.679Z,0.00
2019-03-31T04:06:38.657Z,0.00
2019-03-31T04:07:38.628Z,0.00
2019-03-31T04:08:38.605Z,0.00
2019-03-31T04:09:38.598Z,0.00
2019-03-31T04:10:38.565Z,0.00
2019-03-31T04:11:38.542Z,0.00
2019-03-31T04:12:38.515Z,0.00
2019-03-31T04:13:38.496Z,0.00
2019-03-31T04:14:38.477Z,0.00
2019-03-31T04:15:38.448Z,0.00
2019-03-31T04:16:38.429Z,0.00
2019-03-31T04:17:38.407Z,0.00
2019-03-31T04:18:38.388Z,0.00
2019-03-31T04:19:38.362Z,0.00
2019-03-31T04:20:39.435Z,0.00
2019-03-31T04:21:38.322Z,0.00
2019-03-31T04:22:38.303Z,0.00
2019-03-31T04:23:38.274Z,0.00
2019-03-31T04:24:38.254Z,0.00
2019-03-31T04:25:38.242Z,0.00
2019-03-31T04:26:38.215Z,0.00
2019-03-31T04:27:38.186Z,0.00
2019-03-31T04:28:38.164Z,0.00
2019-03-31T04:29:38.141Z,0.00
2019-03-31T04:30:38.121Z,0.00
2019-03-31T04:31:38.094Z,0.00
2019-03-31T04:32:39.053Z,0.00
2019-03-31T04:33:50.583Z,0.00
2019-03-31T04:34:38.032Z,0.00
2019-03-31T04:35:38.012Z,0.00
2019-03-31T04:36:37.983Z,0.00
2019-03-31T04:37:37.966Z,0.00
2019-03-31T04:38:37.940Z,0.00
2019-03-31T04:39:37.921Z,0.00
2019-03-31T04:40:37.904Z,0.00
2019-03-31T04:41:37.875Z,0.00
2019-03-31T04:42:37.851Z,0.00
2019-03-31T04:43:37.829Z,0.00
2019-03-31T04:44:37.807Z,0.00
2019-03-31T04:45:37.803Z,0.00
2019-03-31T04:46:37.763Z,0.00
2019-03-31T04:47:37.746Z,0.00
2019-03-31T04:48:37.719Z,0.00
2019-03-31T04:49:37.702Z,4.00
2019-03-31T04:50:37.677Z,0.00
2019-03-31T04:51:37.652Z,0.00
2019-03-31T04:52:37.642Z,0.00
2019-03-31T04:53:37.607Z,0.00
2019-03-31T04:54:37.585Z,4.00
2019-03-31T04:55:37.564Z,0.00
2019-03-31T04:56:37.541Z,0.00
2019-03-31T04:57:37.517Z,4.00
2019-03-31T04:58:37.505Z,0.00
2019-03-31T04:59:37.475Z,4.00
2019-03-31T05:00:37.451Z,4.00
2019-03-31T05:01:37.440Z,0.00
2019-03-31T05:02:37.410Z,4.00
2019-03-31T05:03:37.385Z,4.00
2019-03-31T05:04:37.366Z,4.00
2019-03-31T05:05:37.342Z,4.00
2019-03-31T05:06:37.315Z,4.00
2019-03-31T05:07:37.295Z,4.00
2019-03-31T05:08:37.273Z,8.00
2019-03-31T05:09:37.249Z,4.00
2019-03-31T05:10:37.226Z,8.00
2019-03-31T05:11:37.205Z,8.00
2019-03-31T05:12:37.183Z,8.00
2019-03-31T05:13:37.163Z,8.00
2019-03-31T05:14:37.137Z,12.00
2019-03-31T05:15:37.116Z,12.00
2019-03-31T05:16:37.092Z,12.00
2019-03-31T05:17:37.071Z,12.00
2019-03-31T05:18:37.050Z,12.00
2019-03-31T05:19:37.037Z,12.00
2019-03-31T05:20:37.007Z,16.00
2019-03-31T05:21:36.981Z,16.00
2019-03-31T05:22:36.963Z,16.00
2019-03-31T05:23:36.936Z,16.00
2019-03-31T05:24:36.921Z,16.00
2019-03-31T05:25:36.890Z,20.00
2019-03-31T05:26:36.868Z,20.00
2019-03-31T05:27:36.845Z,24.00
2019-03-31T05:28:36.826Z,24.00
2019-03-31T05:29:36.804Z,28.00
2019-03-31T05:30:36.781Z,28.00
2019-03-31T05:31:36.755Z,32.00
2019-03-31T05:32:36.733Z,32.00
2019-03-31T05:33:36.711Z,36.00
2019-03-31T05:34:36.689Z,40.00
2019-03-31T05:35:36.666Z,40.00
2019-03-31T05:36:36.643Z,40.00
2019-03-31T05:37:49.982Z,40.00
2019-03-31T05:38:36.595Z,40.00
2019-03-31T05:39:36.581Z,44.00
2019-03-31T05:40:36.551Z,44.00
2019-03-31T05:41:36.530Z,44.00
2019-03-31T05:42:36.505Z,44.00
2019-03-31T05:43:36.482Z,52.00
2019-03-31T05:44:36.471Z,56.00
2019-03-31T05:45:36.443Z,60.00
2019-03-31T05:46:36.415Z,60.00
2019-03-31T05:47:36.391Z,60.00
2019-03-31T05:48:36.371Z,64.00
2019-03-31T05:49:36.348Z,68.00
2019-03-31T05:50:36.322Z,76.00
2019-03-31T05:51:36.302Z,76.00
2019-03-31T05:52:36.278Z,80.00
2019-03-31T05:53:36.255Z,88.00
2019-03-31T05:54:36.233Z,92.00
2019-03-31T05:55:36.207Z,100.00
2019-03-31T05:56:36.197Z,96.00
2019-03-31T05:57:36.163Z,88.00
2019-03-31T05:58:36.139Z,88.00
2019-03-31T05:59:36.115Z,88.00
2019-03-31T06:00:36.096Z,92.00
2019-03-31T06:01:36.072Z,96.00
2019-03-31T06:02:36.049Z,92.00
2019-03-31T06:03:36.025Z,88.00
2019-03-31T06:04:36.002Z,88.00
2019-03-31T06:05:35.985Z,88.00
2019-03-31T06:06:37.148Z,100.00
2019-03-31T06:07:35.935Z,100.00
2019-03-31T06:08:35.912Z,100.00
2019-03-31T06:09:35.888Z,104.00
2019-03-31T06:10:35.869Z,108.00
2019-03-31T06:11:35.846Z,116.00
2019-03-31T06:12:35.824Z,112.00
2019-03-31T06:13:35.802Z,104.00
2019-03-31T06:14:35.780Z,100.00
2019-03-31T06:15:35.751Z,112.00
2019-03-31T06:16:35.726Z,128.00
2019-03-31T06:17:35.713Z,140.00
2019-03-31T06:18:35.688Z,144.00
2019-03-31T06:19:35.659Z,148.00
2019-03-31T06:20:35.641Z,144.00
2019-03-31T06:21:35.614Z,152.00
2019-03-31T06:22:35.598Z,152.00
2019-03-31T06:23:35.566Z,156.00
2019-03-31T06:24:35.543Z,156.00
2019-03-31T06:25:35.530Z,164.00
2019-03-31T06:26:35.499Z,160.00
2019-03-31T06:27:35.478Z,156.00
2019-03-31T06:28:35.453Z,164.00
2019-03-31T06:29:35.427Z,168.00
2019-03-31T06:30:35.405Z,180.00
2019-03-31T06:31:35.384Z,200.00
2019-03-31T06:32:35.361Z,224.00
2019-03-31T06:33:35.336Z,236.00
2019-03-31T06:34:46.888Z,256.00
2019-03-31T06:35:35.297Z,252.00
2019-03-31T06:36:35.270Z,264.00
2019-03-31T06:37:35.248Z,272.00
2019-03-31T06:38:35.224Z,280.00
2019-03-31T06:39:35.201Z,272.00
2019-03-31T06:40:35.180Z,284.00
2019-03-31T06:41:35.153Z,276.00
2019-03-31T06:42:35.133Z,276.00
2019-03-31T06:43:35.112Z,280.00
2019-03-31T06:44:37.971Z,276.00
2019-03-31T06:45:35.064Z,304.00
2019-03-31T06:46:35.055Z,296.00
2019-03-31T06:47:35.024Z,300.00
2019-03-31T06:48:35.001Z,308.00
2019-03-31T06:49:34.972Z,316.00
2019-03-31T06:50:34.949Z,320.00
2019-03-31T06:51:34.926Z,332.00
2019-03-31T06:52:34.904Z,320.00
2019-03-31T06:53:34.881Z,344.00
2019-03-31T06:54:34.862Z,356.00
2019-03-31T06:55:34.839Z,376.00
2019-03-31T06:56:34.815Z,360.00
2019-03-31T06:57:34.791Z,360.00
2019-03-31T06:58:34.770Z,396.00
2019-03-31T06:59:34.747Z,376.00
2019-03-31T07:00:34.721Z,432.00
2019-03-31T07:01:34.699Z,436.00
2019-03-31T07:02:34.675Z,416.00
2019-03-31T07:03:34.652Z,440.00
2019-03-31T07:04:34.630Z,464.00
2019-03-31T07:05:34.612Z,468.00
2019-03-31T07:06:34.586Z,488.00
2019-03-31T07:07:34.563Z,440.00
2019-03-31T07:08:34.541Z,476.00
2019-03-31T07:09:34.525Z,464.00
2019-03-31T07:10:34.494Z,560.00
2019-03-31T07:11:34.474Z,564.00
2019-03-31T07:12:34.450Z,604.00
2019-03-31T07:13:34.430Z,552.00
2019-03-31T07:14:34.402Z,460.00
2019-03-31T07:15:34.403Z,568.00
2019-03-31T07:16:34.362Z,616.00
2019-03-31T07:17:34.341Z,624.00
2019-03-31T07:18:34.315Z,640.00
2019-03-31T07:19:34.296Z,644.00
2019-03-31T07:20:34.272Z,644.00
2019-03-31T07:21:34.252Z,656.00
2019-03-31T07:22:34.230Z,672.00
2019-03-31T07:23:34.200Z,652.00
2019-03-31T07:24:34.187Z,652.00
2019-03-31T07:25:37.061Z,648.00
2019-03-31T07:26:34.135Z,688.00
2019-03-31T07:27:34.127Z,708.00
2019-03-31T07:28:34.162Z,724.00
2019-03-31T07:29:34.068Z,768.00
2019-03-31T07:30:34.049Z,824.00
2019-03-31T07:31:34.025Z,856.00
2019-03-31T07:32:34.008Z,892.00
2019-03-31T07:33:33.987Z,900.00
2019-03-31T07:34:33.957Z,924.00
2019-03-31T07:35:33.937Z,940.00
2019-03-31T07:36:33.914Z,932.00
2019-03-31T07:37:46.706Z,880.00
2019-03-31T07:38:39.174Z,904.00
2019-03-31T07:39:33.920Z,720.00
2019-03-31T07:40:34.107Z,644.00
2019-03-31T07:41:34.004Z,608.00
2019-03-31T07:42:33.779Z,588.00
2019-03-31T07:43:33.758Z,568.00
2019-03-31T07:44:33.739Z,552.00
2019-03-31T07:45:33.714Z,552.00
2019-03-31T07:46:33.692Z,552.00
2019-03-31T07:47:33.667Z,552.00
2019-03-31T07:48:33.684Z,552.00
2019-03-31T07:49:33.625Z,540.00
2019-03-31T07:50:33.609Z,528.00
2019-03-31T07:51:33.585Z,508.00
2019-03-31T07:52:33.556Z,492.00
2019-03-31T07:53:33.841Z,460.00
2019-03-31T07:54:33.512Z,468.00
2019-03-31T07:55:33.503Z,488.00
2019-03-31T07:56:33.467Z,520.00
2019-03-31T07:57:33.453Z,524.00
2019-03-31T07:58:33.436Z,572.00
2019-03-31T07:59:33.491Z,932.00
2019-03-31T08:00:33.380Z,828.00
2019-03-31T08:01:33.362Z,1140.00
2019-03-31T08:02:33.343Z,1072.00
2019-03-31T08:03:33.315Z,780.00
2019-03-31T08:04:33.289Z,876.00
2019-03-31T08:05:37.477Z,916.00
2019-03-31T08:06:33.246Z,700.00
2019-03-31T08:07:33.230Z,664.00
2019-03-31T08:08:33.202Z,656.00
2019-03-31T08:09:33.190Z,644.00
2019-03-31T08:10:33.156Z,640.00
2019-03-31T08:11:33.141Z,624.00
2019-03-31T08:12:33.109Z,628.00
2019-03-31T08:13:33.089Z,656.00
2019-03-31T08:14:33.065Z,696.00
2019-03-31T08:15:33.045Z,748.00
2019-03-31T08:16:33.029Z,784.00
2019-03-31T08:17:33.001Z,788.00
2019-03-31T08:18:32.978Z,868.00
2019-03-31T08:19:32.963Z,688.00
2019-03-31T08:20:32.937Z,628.00
2019-03-31T08:21:32.923Z,596.00
2019-03-31T08:22:32.899Z,508.00
2019-03-31T08:23:32.879Z,436.00
2019-03-31T08:24:32.853Z,396.00
2019-03-31T08:25:32.823Z,376.00
2019-03-31T08:26:32.811Z,384.00
2019-03-31T08:27:32.777Z,392.00
2019-03-31T08:28:32.809Z,380.00
2019-03-31T08:29:32.740Z,360.00
2019-03-31T08:30:32.710Z,328.00
2019-03-31T08:31:32.703Z,312.00
2019-03-31T08:32:32.666Z,308.00
2019-03-31T08:33:32.651Z,300.00
2019-03-31T08:34:32.624Z,304.00
2019-03-31T08:35:46.305Z,320.00
2019-03-31T08:36:35.304Z,340.00
2019-03-31T08:37:32.562Z,388.00
2019-03-31T08:38:32.531Z,472.00
2019-03-31T08:39:32.513Z,564.00
2019-03-31T08:40:32.496Z,548.00
2019-03-31T08:41:32.471Z,480.00
2019-03-31T08:42:32.449Z,444.00
2019-03-31T08:43:32.437Z,420.00
2019-03-31T08:44:32.401Z,388.00
2019-03-31T08:45:32.381Z,360.00
2019-03-31T08:46:32.373Z,352.00
2019-03-31T08:47:32.339Z,376.00
2019-03-31T08:48:32.329Z,392.00
2019-03-31T08:49:32.299Z,400.00
2019-03-31T08:50:34.834Z,404.00
2019-03-31T08:51:32.256Z,424.00
2019-03-31T08:52:32.226Z,444.00
2019-03-31T08:53:32.202Z,484.00
2019-03-31T08:54:32.179Z,492.00
2019-03-31T08:55:32.159Z,544.00
2019-03-31T08:56:32.147Z,608.00
2019-03-31T08:57:32.114Z,620.00
2019-03-31T08:58:32.097Z,552.00
2019-03-31T08:59:32.086Z,512.00
2019-03-31T09:00:32.051Z,504.00
2019-03-31T09:01:32.025Z,496.00
2019-03-31T09:02:32.008Z,500.00
2019-03-31T09:03:31.986Z,532.00
2019-03-31T09:04:31.971Z,564.00
2019-03-31T09:05:31.936Z,608.00
2019-03-31T09:06:31.913Z,664.00
2019-03-31T09:07:31.899Z,736.00
2019-03-31T09:08:31.875Z,856.00
2019-03-31T09:09:31.853Z,976.00
2019-03-31T09:10:31.832Z,1024.00
2019-03-31T09:11:31.803Z,1012.00
2019-03-31T09:12:31.782Z,1080.00
2019-03-31T09:13:31.758Z,1200.00
2019-03-31T09:14:31.739Z,1156.00
2019-03-31T09:15:31.716Z,1128.00
2019-03-31T09:16:31.701Z,1028.00
2019-03-31T09:17:31.676Z,960.00
2019-03-31T09:18:31.658Z,844.00
2019-03-31T09:19:31.627Z,740.00
2019-03-31T09:20:31.610Z,668.00
2019-03-31T09:21:31.591Z,596.00
2019-03-31T09:22:31.568Z,548.00
2019-03-31T09:23:31.547Z,544.00
2019-03-31T09:24:31.523Z,560.00
2019-03-31T09:25:31.500Z,536.00
2019-03-31T09:26:31.478Z,496.00
2019-03-31T09:27:31.456Z,460.00
2019-03-31T09:28:31.439Z,440.00
2019-03-31T09:29:31.424Z,404.00
2019-03-31T09:30:31.394Z,360.00
2019-03-31T09:31:31.376Z,340.00
2019-03-31T09:32:31.359Z,356.00
2019-03-31T09:33:31.330Z,392.00
2019-03-31T09:34:31.316Z,440.00
2019-03-31T09:35:31.281Z,464.00
2019-03-31T09:36:31.270Z,440.00
2019-03-31T09:37:31.236Z,392.00
2019-03-31T09:38:31.272Z,368.00
2019-03-31T09:39:31.202Z,376.00
2019-03-31T09:40:31.174Z,420.00
2019-03-31T09:41:31.146Z,520.00
2019-03-31T09:42:31.125Z,604.00
2019-03-31T09:43:31.106Z,612.00
2019-03-31T09:44:31.084Z,572.00
2019-03-31T09:45:31.087Z,524.00
2019-03-31T09:46:31.039Z,532.00
2019-03-31T09:47:31.019Z,512.00
2019-03-31T09:48:30.999Z,464.00
2019-03-31T09:49:30.975Z,428.00
2019-03-31T09:50:30.951Z,416.00
2019-03-31T09:51:30.935Z,404.00
2019-03-31T09:52:30.925Z,376.00
2019-03-31T09:53:30.896Z,348.00
2019-03-31T09:54:30.881Z,328.00
2019-03-31T09:55:30.845Z,304.00
2019-03-31T09:56:30.823Z,292.00
2019-03-31T09:57:30.809Z,284.00
2019-03-31T09:58:30.778Z,288.00
2019-03-31T09:59:30.754Z,304.00
2019-03-31T10:00:30.745Z,304.00
2019-03-31T10:01:30.713Z,308.00
2019-03-31T10:02:30.688Z,328.00
2019-03-31T10:03:30.675Z,348.00
2019-03-31T10:04:30.647Z,380.00
2019-03-31T10:05:30.623Z,408.00
2019-03-31T10:06:30.908Z,432.00
2019-03-31T10:07:30.577Z,456.00
2019-03-31T10:08:30.557Z,472.00
2019-03-31T10:09:30.534Z,516.00
2019-03-31T10:10:30.525Z,568.00
2019-03-31T10:11:30.492Z,620.00
2019-03-31T10:12:30.473Z,664.00
2019-03-31T10:13:30.448Z,692.00
2019-03-31T10:14:30.424Z,696.00
2019-03-31T10:15:30.417Z,688.00
2019-03-31T10:16:30.384Z,688.00
2019-03-31T10:17:30.361Z,668.00
2019-03-31T10:18:30.334Z,620.00
2019-03-31T10:19:30.323Z,572.00
2019-03-31T10:20:31.555Z,528.00
2019-03-31T10:21:30.289Z,504.00
2019-03-31T10:22:30.260Z,512.00
2019-03-31T10:23:30.228Z,536.00
2019-03-31T10:24:30.203Z,560.00
2019-03-31T10:25:30.184Z,588.00
2019-03-31T10:26:32.373Z,632.00
2019-03-31T10:27:30.139Z,684.00
2019-03-31T10:28:30.117Z,740.00
2019-03-31T10:29:30.102Z,784.00
2019-03-31T10:30:30.077Z,816.00
2019-03-31T10:31:30.059Z,816.00
2019-03-31T10:32:30.042Z,760.00
2019-03-31T10:33:30.013Z,656.00
2019-03-31T10:34:29.987Z,560.00
2019-03-31T10:35:29.973Z,488.00
2019-03-31T10:36:43.569Z,440.00
2019-03-31T10:37:29.933Z,420.00
2019-03-31T10:38:29.901Z,404.00
2019-03-31T10:39:29.882Z,388.00
2019-03-31T10:40:29.857Z,376.00
2019-03-31T10:41:31.074Z,364.00
2019-03-31T10:42:29.813Z,372.00
2019-03-31T10:43:29.789Z,392.00
2019-03-31T10:44:29.786Z,408.00
2019-03-31T10:45:29.749Z,416.00
2019-03-31T10:46:29.733Z,424.00
2019-03-31T10:47:29.703Z,428.00
2019-03-31T10:48:29.682Z,432.00
2019-03-31T10:49:29.670Z,448.00
2019-03-31T10:50:29.639Z,464.00
2019-03-31T10:51:29.615Z,472.00
2019-03-31T10:52:29.611Z,480.00
2019-03-31T10:53:29.574Z,484.00
2019-03-31T10:54:29.550Z,496.00
2019-03-31T10:55:29.528Z,516.00
2019-03-31T10:56:29.520Z,540.00
2019-03-31T10:57:29.502Z,572.00
2019-03-31T10:58:29.467Z,612.00
2019-03-31T10:59:29.440Z,636.00
2019-03-31T11:00:29.426Z,656.00
2019-03-31T11:01:29.397Z,664.00
2019-03-31T11:02:29.383Z,664.00
2019-03-31T11:03:32.875Z,664.00
2019-03-31T11:04:29.334Z,664.00
2019-03-31T11:05:29.321Z,664.00
2019-03-31T11:06:29.297Z,668.00
2019-03-31T11:07:29.270Z,656.00
2019-03-31T11:08:29.257Z,644.00
2019-03-31T11:09:29.225Z,616.00
2019-03-31T11:10:29.216Z,572.00
2019-03-31T11:11:29.182Z,528.00
2019-03-31T11:12:29.160Z,508.00
2019-03-31T11:13:29.153Z,448.00
2019-03-31T11:14:29.118Z,476.00
2019-03-31T11:15:29.098Z,464.00
2019-03-31T11:16:29.076Z,428.00
2019-03-31T11:17:29.056Z,416.00
2019-03-31T11:18:29.044Z,384.00
2019-03-31T11:19:29.012Z,368.00
2019-03-31T11:20:29.002Z,352.00
2019-03-31T11:21:28.968Z,332.00
2019-03-31T11:22:28.944Z,344.00
2019-03-31T11:23:28.929Z,352.00
2019-03-31T11:24:28.900Z,368.00
2019-03-31T11:25:29.462Z,360.00
2019-03-31T11:26:28.865Z,360.00
2019-03-31T11:27:28.833Z,348.00
2019-03-31T11:28:28.821Z,340.00
2019-03-31T11:29:28.824Z,340.00
2019-03-31T11:30:28.769Z,348.00
2019-03-31T11:31:28.756Z,368.00
2019-03-31T11:32:28.731Z,380.00
2019-03-31T11:33:28.717Z,392.00
2019-03-31T11:34:28.691Z,400.00
2019-03-31T11:35:28.667Z,400.00
2019-03-31T11:36:28.645Z,404.00
2019-03-31T11:37:28.626Z,404.00
2019-03-31T11:38:28.598Z,400.00
2019-03-31T11:39:28.587Z,396.00
2019-03-31T11:40:28.576Z,400.00
2019-03-31T11:41:28.535Z,408.00
2019-03-31T11:42:28.514Z,416.00
2019-03-31T11:43:28.492Z,424.00
2019-03-31T11:44:28.500Z,436.00
2019-03-31T11:45:28.478Z,444.00
2019-03-31T11:46:28.421Z,444.00
2019-03-31T11:47:28.477Z,436.00
2019-03-31T11:48:28.398Z,436.00
2019-03-31T11:49:28.356Z,436.00
2019-03-31T11:50:28.335Z,436.00
2019-03-31T11:51:28.309Z,444.00
2019-03-31T11:52:28.311Z,468.00
2019-03-31T11:53:28.274Z,504.00
2019-03-31T11:54:28.250Z,532.00
2019-03-31T11:55:28.226Z,548.00
2019-03-31T11:56:28.213Z,564.00
2019-03-31T11:57:28.182Z,588.00
2019-03-31T11:58:28.161Z,616.00
2019-03-31T11:59:28.147Z,640.00
2019-03-31T12:00:28.115Z,664.00
2019-03-31T12:01:28.093Z,688.00
2019-03-31T12:02:28.140Z,720.00
2019-03-31T12:03:30.991Z,760.00
2019-03-31T12:04:28.028Z,784.00
2019-03-31T12:05:28.028Z,824.00
2019-03-31T12:06:27.986Z,864.00
2019-03-31T12:07:28.687Z,892.00
2019-03-31T12:08:27.941Z,912.00
2019-03-31T12:09:27.919Z,952.00
2019-03-31T12:10:27.896Z,1004.00
2019-03-31T12:11:27.877Z,1076.00
2019-03-31T12:12:27.856Z,1092.00
2019-03-31T12:13:27.858Z,1120.00
2019-03-31T12:14:27.816Z,1028.00
2019-03-31T12:15:27.797Z,952.00
2019-03-31T12:16:27.774Z,860.00
2019-03-31T12:17:27.757Z,760.00
2019-03-31T12:18:27.744Z,676.00
2019-03-31T12:19:27.706Z,608.00
2019-03-31T12:20:27.685Z,564.00
2019-03-31T12:21:27.666Z,532.00
2019-03-31T12:22:27.643Z,532.00
2019-03-31T12:23:27.618Z,548.00
2019-03-31T12:24:27.602Z,572.00
2019-03-31T12:25:27.599Z,604.00
2019-03-31T12:26:27.555Z,640.00
2019-03-31T12:27:27.631Z,676.00
2019-03-31T12:28:27.522Z,720.00
2019-03-31T12:29:27.500Z,752.00
2019-03-31T12:30:27.475Z,784.00
2019-03-31T12:31:27.447Z,808.00
2019-03-31T12:32:27.438Z,820.00
2019-03-31T12:33:27.417Z,796.00
2019-03-31T12:34:27.394Z,756.00
2019-03-31T12:35:27.368Z,740.00
2019-03-31T12:36:27.341Z,772.00
2019-03-31T12:37:41.313Z,1672.00
2019-03-31T12:38:27.308Z,2656.00
2019-03-31T12:39:27.279Z,2668.00
2019-03-31T12:40:27.275Z,2764.00
2019-03-31T12:41:27.238Z,2924.00
2019-03-31T12:42:27.213Z,2684.00
2019-03-31T12:43:27.197Z,2544.00
2019-03-31T12:44:27.169Z,1588.00
2019-03-31T12:45:27.150Z,1888.00
2019-03-31T12:46:27.137Z,1252.00
2019-03-31T12:47:27.106Z,1240.00
2019-03-31T12:48:27.087Z,936.00